createdAt,value
2017-06-10T00:01:29.266Z,91.40
2017-06-10T00:03:56.814Z,91.30
2017-06-10T00:06:25.099Z,91.70
2017-06-10T00:08:52.634Z,91.70
2017-06-10T00:11:20.172Z,91.90
2017-06-10T00:13:47.694Z,92.10
2017-06-10T00:16:15.247Z,92.40
2017-06-10T00:18:43.535Z,92.60
2017-06-10T00:21:11.052Z,92.50
2017-06-10T00:23:38.581Z,92.50
2017-06-10T00:26:06.105Z,92.60
2017-06-10T00:28:33.645Z,92.80
2017-06-10T00:31:01.159Z,92.80
2017-06-10T00:33:28.671Z,92.80
2017-06-10T00:35:56.974Z,93.20
2017-06-10T00:38:24.499Z,92.80
2017-06-10T00:40:52.053Z,92.80
2017-06-10T00:43:19.571Z,92.90
2017-06-10T00:45:47.090Z,92.90
2017-06-10T00:48:15.394Z,92.90
2017-06-10T00:50:42.923Z,92.90
2017-06-10T00:53:10.468Z,93.00
2017-06-10T00:55:37.982Z,93.00
2017-06-10T00:58:05.502Z,92.90
2017-06-10T01:00:33.039Z,92.90
2017-06-10T01:03:00.568Z,93.00
2017-06-10T01:05:28.112Z,93.10
2017-06-10T01:07:55.641Z,93.40
2017-06-10T01:10:23.166Z,93.30
2017-06-10T01:12:50.698Z,93.30
2017-06-10T01:15:18.220Z,93.30
2017-06-10T01:17:51.605Z,93.30
2017-06-10T01:20:19.123Z,93.30
2017-06-10T01:22:46.634Z,93.50
2017-06-10T01:25:14.175Z,93.60
2017-06-10T01:27:41.699Z,93.80
2017-06-10T01:30:09.242Z,93.90
2017-06-10T01:32:36.762Z,93.90
2017-06-10T01:35:04.276Z,94.00
2017-06-10T01:37:31.814Z,94.00
2017-06-10T01:39:59.330Z,94.00
2017-06-10T01:42:26.882Z,94.10
2017-06-10T01:44:54.411Z,94.10
2017-06-10T01:47:21.934Z,94.10
2017-06-10T01:49:49.471Z,94.10
2017-06-10T01:52:16.994Z,94.10
2017-06-10T01:54:44.540Z,94.10
2017-06-10T01:57:12.827Z,94.20
2017-06-10T01:59:40.349Z,94.10
2017-06-10T02:02:08.666Z,94.20
2017-06-10T02:04:36.190Z,94.20
2017-06-10T02:07:03.738Z,94.20
2017-06-10T02:09:31.250Z,94.20
2017-06-10T02:11:58.778Z,94.30
2017-06-10T02:14:26.320Z,94.40
2017-06-10T02:16:53.849Z,94.40
2017-06-10T02:19:21.390Z,94.50
2017-06-10T02:21:48.910Z,94.50
2017-06-10T02:24:16.437Z,94.50
2017-06-10T02:26:43.976Z,94.60
2017-06-10T02:29:11.502Z,94.80
2017-06-10T02:31:39.117Z,94.60
2017-06-10T02:34:06.637Z,94.60
2017-06-10T02:36:34.180Z,94.70
2017-06-10T02:39:01.708Z,94.70
2017-06-10T02:41:29.226Z,94.70
2017-06-10T02:43:56.759Z,94.80
2017-06-10T02:46:24.283Z,94.80
2017-06-10T02:48:51.830Z,94.80
2017-06-10T02:51:19.348Z,94.80
2017-06-10T02:53:46.869Z,94.90
2017-06-10T02:56:14.402Z,94.90
2017-06-10T02:58:41.927Z,94.90
2017-06-10T03:01:09.486Z,95.00
2017-06-10T03:03:37.018Z,95.10
2017-06-10T03:06:04.541Z,95.10
2017-06-10T03:08:32.070Z,95.10
2017-06-10T03:10:59.598Z,95.20
2017-06-10T03:13:27.150Z,95.20
2017-06-10T03:15:54.675Z,95.20
2017-06-10T03:18:22.194Z,95.60
2017-06-10T03:20:49.733Z,95.30
2017-06-10T03:23:17.246Z,95.30
2017-06-10T03:25:45.574Z,95.40
2017-06-10T03:28:13.096Z,95.40
2017-06-10T03:30:40.613Z,95.50
2017-06-10T03:33:08.152Z,95.60
2017-06-10T03:35:35.665Z,95.60
2017-06-10T03:38:03.983Z,95.70
2017-06-10T03:40:31.506Z,95.70
2017-06-10T03:42:59.786Z,95.60
2017-06-10T03:45:28.094Z,95.60
2017-06-10T03:47:55.618Z,95.60
2017-06-10T03:50:23.933Z,95.50
2017-06-10T03:52:51.458Z,95.50
2017-06-10T03:55:19.746Z,95.40
2017-06-10T03:57:48.055Z,95.30
2017-06-10T04:00:15.574Z,95.30
2017-06-10T04:02:43.883Z,94.40
2017-06-10T04:05:11.402Z,94.40
2017-06-10T04:07:38.913Z,93.80
2017-06-10T04:10:06.457Z,93.50
2017-06-10T04:12:33.983Z,92.90
2017-06-10T04:15:01.538Z,92.10
2017-06-10T04:17:29.067Z,91.70
2017-06-10T04:19:56.581Z,90.70
2017-06-10T04:22:24.878Z,89.10
2017-06-10T04:24:52.399Z,89.00
2017-06-10T04:27:19.947Z,82.80
2017-06-10T04:29:47.463Z,66.60
2017-06-10T04:32:14.983Z,58.30
2017-06-10T04:34:43.293Z,41.00
2017-06-10T04:37:10.817Z,40.90
2017-06-10T04:39:39.159Z,32.90
2017-06-10T04:42:06.716Z,32.40
2017-06-10T04:44:34.237Z,30.50
2017-06-10T04:47:02.575Z,31.10
2017-06-10T04:49:30.089Z,31.30
2017-06-10T04:51:57.647Z,28.10
2017-06-10T04:54:25.181Z,26.30
2017-06-10T04:56:52.699Z,25.80
2017-06-10T04:59:20.250Z,24.10
2017-06-10T05:01:47.773Z,23.20
2017-06-10T05:04:16.090Z,21.90
2017-06-10T05:06:43.614Z,21.90
2017-06-10T05:09:11.895Z,20.00
2017-06-10T05:11:40.205Z,19.00
2017-06-10T05:14:07.730Z,19.00
2017-06-10T05:16:35.287Z,18.90
2017-06-10T05:19:03.573Z,18.70
2017-06-10T05:21:31.093Z,18.70
2017-06-10T05:23:58.631Z,18.60
2017-06-10T05:26:26.158Z,18.80
2017-06-10T05:28:53.702Z,18.00
2017-06-10T05:31:21.225Z,18.00
2017-06-10T05:33:48.738Z,17.60
2017-06-10T05:36:17.043Z,17.30
2017-06-10T05:38:44.560Z,17.30
2017-06-10T05:41:12.106Z,17.60
2017-06-10T05:43:39.627Z,15.90
2017-06-10T05:46:07.142Z,16.60
2017-06-10T05:48:35.450Z,15.50
2017-06-10T05:51:02.966Z,15.40
2017-06-10T05:53:30.506Z,15.80
2017-06-10T05:55:58.027Z,15.80
2017-06-10T05:58:25.552Z,16.20
2017-06-10T06:00:53.098Z,17.40
2017-06-10T06:03:20.622Z,16.50
2017-06-10T06:05:48.192Z,15.70
2017-06-10T06:08:15.710Z,16.00
2017-06-10T06:10:43.989Z,15.70
2017-06-10T06:13:12.296Z,16.00
2017-06-10T06:15:39.818Z,16.00
2017-06-10T06:18:08.136Z,14.30
2017-06-10T06:20:35.650Z,13.60
2017-06-10T06:23:03.162Z,14.10
2017-06-10T06:25:30.725Z,13.80
2017-06-10T06:27:58.245Z,14.00
2017-06-10T06:30:26.557Z,15.10
2017-06-10T06:32:54.074Z,15.10
2017-06-10T06:35:21.599Z,14.50
2017-06-10T06:37:49.129Z,15.40
2017-06-10T06:40:16.649Z,14.50
2017-06-10T06:42:44.279Z,15.40
2017-06-10T06:45:11.795Z,15.80
2017-06-10T06:47:40.207Z,17.60
2017-06-10T06:50:07.724Z,17.50
2017-06-10T06:52:35.243Z,18.50
2017-06-10T06:55:02.770Z,21.50
2017-06-10T06:57:30.287Z,23.80
2017-06-10T06:59:57.844Z,26.20
2017-06-10T07:02:25.389Z,27.90
2017-06-10T07:04:52.906Z,29.40
2017-06-10T07:07:20.470Z,31.50
2017-06-10T07:09:48.114Z,35.30
2017-06-10T07:12:15.654Z,36.40
2017-06-10T07:14:43.169Z,35.20
2017-06-10T07:17:10.689Z,34.60
2017-06-10T07:19:38.998Z,35.10
2017-06-10T07:22:06.542Z,35.10
2017-06-10T07:24:35.126Z,34.50
2017-06-10T07:27:02.651Z,35.20
2017-06-10T07:29:31.078Z,33.30
2017-06-10T07:31:58.637Z,32.50
2017-06-10T07:34:34.119Z,33.00
2017-06-10T07:37:01.794Z,32.30
2017-06-10T07:39:32.990Z,30.80
2017-06-10T07:42:00.518Z,35.60
2017-06-10T07:44:28.234Z,35.10
2017-06-10T07:46:55.933Z,31.50
2017-06-10T07:49:23.465Z,29.90
2017-06-10T07:51:51.939Z,31.30
2017-06-10T07:54:19.514Z,32.70
2017-06-10T07:56:47.043Z,30.60
2017-06-10T07:59:14.587Z,28.40
2017-06-10T08:01:42.911Z,33.40
2017-06-10T08:04:10.434Z,33.40
2017-06-10T08:06:38.755Z,29.70
2017-06-10T08:09:06.279Z,29.70
2017-06-10T08:11:33.802Z,29.00
2017-06-10T08:14:01.351Z,30.00
2017-06-10T08:16:28.877Z,29.90
2017-06-10T08:18:56.549Z,28.00
2017-06-10T08:21:24.075Z,31.10
2017-06-10T08:23:52.362Z,26.60
2017-06-10T08:26:19.902Z,26.40
2017-06-10T08:28:48.189Z,27.60
2017-06-10T08:31:16.607Z,28.90
2017-06-10T08:33:44.156Z,29.00
2017-06-10T08:36:12.015Z,26.20
2017-06-10T08:38:39.551Z,26.00
2017-06-10T08:41:07.066Z,24.70
2017-06-10T08:43:34.610Z,24.40
2017-06-10T08:46:02.179Z,24.00
2017-06-10T08:48:29.743Z,24.70
2017-06-10T08:50:57.305Z,25.80
2017-06-10T08:53:24.828Z,24.20
2017-06-10T08:55:53.134Z,23.10
2017-06-10T08:58:20.646Z,23.10
2017-06-10T09:00:48.169Z,21.50
2017-06-10T09:03:15.702Z,20.40
2017-06-10T09:05:43.251Z,20.90
2017-06-10T09:11:03.589Z,21.50
2017-06-10T09:13:31.294Z,22.70
2017-06-10T09:15:58.889Z,21.50
2017-06-10T09:18:26.478Z,23.70
2017-06-10T09:20:54.041Z,22.90
2017-06-10T09:23:21.555Z,23.00
2017-06-10T09:25:49.145Z,24.40
2017-06-10T09:28:16.668Z,25.10
2017-06-10T09:33:37.697Z,26.00
2017-06-10T09:36:05.504Z,26.60
2017-06-10T09:38:33.478Z,26.40
2017-06-10T09:41:01.692Z,26.60
2017-06-10T09:43:30.105Z,29.10
2017-06-10T09:45:57.689Z,28.00
2017-06-10T09:48:25.264Z,29.10
2017-06-10T09:50:52.810Z,27.70
2017-06-10T09:53:20.506Z,26.60
2017-06-10T09:55:48.049Z,26.50
2017-06-10T09:58:15.661Z,26.20
2017-06-10T10:00:43.183Z,26.60
2017-06-10T10:03:10.769Z,27.40
2017-06-10T10:05:38.367Z,25.50
2017-06-10T10:08:06.036Z,24.60
2017-06-10T10:10:33.582Z,24.90
2017-06-10T10:13:01.170Z,24.20
2017-06-10T10:15:29.524Z,23.60
2017-06-10T10:17:58.091Z,23.50
2017-06-10T10:20:25.754Z,21.50
2017-06-10T10:22:53.290Z,21.70
2017-06-10T10:25:21.625Z,20.90
2017-06-10T10:27:49.211Z,20.90
2017-06-10T10:30:16.829Z,20.40
2017-06-10T10:32:45.303Z,21.90
2017-06-10T10:35:12.891Z,23.00
2017-06-10T10:37:40.479Z,24.40
2017-06-10T10:40:08.024Z,25.10
2017-06-10T10:42:35.590Z,26.00
2017-06-10T10:45:03.128Z,27.10
2017-06-10T10:47:30.696Z,27.90
2017-06-10T10:49:58.270Z,25.80
2017-06-10T10:52:25.849Z,26.00
2017-06-10T10:54:53.387Z,25.50
2017-06-10T10:57:20.972Z,25.70
2017-06-10T10:59:48.530Z,26.70
2017-06-10T11:02:16.131Z,27.10
2017-06-10T11:04:43.685Z,25.80
2017-06-10T11:07:11.234Z,24.90
2017-06-10T11:09:38.811Z,23.60
2017-06-10T11:12:06.374Z,21.30
2017-06-10T11:14:33.928Z,22.10
2017-06-10T11:17:01.460Z,22.10
2017-06-10T11:19:29.010Z,19.90
2017-06-10T11:21:56.547Z,20.80
2017-06-10T11:24:24.863Z,18.80
2017-06-10T11:26:52.434Z,18.80
2017-06-10T11:29:19.991Z,17.50
2017-06-10T11:31:47.521Z,16.70
2017-06-10T11:34:15.075Z,20.60
2017-06-10T11:36:42.654Z,18.40
2017-06-10T11:39:10.216Z,18.60
2017-06-10T11:41:37.764Z,18.90
2017-06-10T11:44:05.287Z,19.50
2017-06-10T11:46:33.674Z,20.50
2017-06-10T11:49:01.963Z,19.70
2017-06-10T11:51:29.531Z,19.70
2017-06-10T11:53:57.073Z,19.70
2017-06-10T11:56:24.627Z,18.40
2017-06-10T11:58:52.945Z,16.80
2017-06-10T12:01:20.476Z,16.80
2017-06-10T12:03:48.141Z,16.00
2017-06-10T12:06:15.678Z,16.40
2017-06-10T12:08:44.009Z,17.50
2017-06-10T12:11:11.627Z,18.10
2017-06-10T12:13:39.252Z,15.80
2017-06-10T12:16:06.787Z,17.40
2017-06-10T12:18:34.353Z,18.40
2017-06-10T12:21:01.885Z,19.70
2017-06-10T12:23:29.411Z,19.60
2017-06-10T12:25:57.744Z,19.80
2017-06-10T12:28:25.275Z,19.70
2017-06-10T12:33:26.704Z,20.00
2017-06-10T12:35:55.034Z,18.10
2017-06-10T12:38:22.561Z,17.50
2017-06-10T12:40:50.134Z,17.50
2017-06-10T12:43:17.670Z,18.10
2017-06-10T12:45:45.989Z,18.90
2017-06-10T12:48:13.515Z,18.90
2017-06-10T12:50:41.044Z,17.80
2017-06-10T12:53:08.600Z,19.10
2017-06-10T12:55:36.129Z,16.50
2017-06-10T12:58:03.693Z,15.60
2017-06-10T13:00:31.217Z,17.60
2017-06-10T13:02:58.765Z,18.30
2017-06-10T13:05:26.300Z,17.20
2017-06-10T13:07:53.878Z,19.90
2017-06-10T13:10:22.176Z,19.10
2017-06-10T13:12:49.701Z,19.00
2017-06-10T13:15:18.075Z,19.30
2017-06-10T13:17:46.371Z,17.70
2017-06-10T13:20:14.713Z,19.20
2017-06-10T13:22:42.252Z,18.50
2017-06-10T13:25:09.831Z,20.50
2017-06-10T13:27:37.361Z,19.50
2017-06-10T13:30:04.931Z,18.60
2017-06-10T13:32:32.462Z,16.10
2017-06-10T13:35:00.026Z,17.10
2017-06-10T13:37:27.575Z,17.10
2017-06-10T13:39:55.099Z,15.10
2017-06-10T13:42:22.660Z,17.00
2017-06-10T13:44:50.958Z,18.50
2017-06-10T13:47:18.512Z,18.10
2017-06-10T13:49:46.820Z,20.90
2017-06-10T13:52:14.392Z,20.90
2017-06-10T13:54:41.940Z,19.80
2017-06-10T13:57:09.467Z,20.00
2017-06-10T13:59:37.831Z,20.30
2017-06-10T14:02:06.125Z,19.70
2017-06-10T14:04:33.693Z,19.70
2017-06-10T14:07:01.224Z,18.80
2017-06-10T14:09:29.554Z,18.80
2017-06-10T14:11:57.091Z,18.90
2017-06-10T14:14:24.663Z,19.40
2017-06-10T14:16:52.233Z,19.80
2017-06-10T14:19:19.866Z,20.10
2017-06-10T14:21:47.419Z,18.10
2017-06-10T14:24:14.969Z,19.70
2017-06-10T14:26:43.310Z,18.80
2017-06-10T14:29:10.839Z,18.80
2017-06-10T14:31:38.406Z,19.30
2017-06-10T14:34:05.932Z,18.80
2017-06-10T14:36:33.497Z,20.70
2017-06-10T14:39:01.084Z,18.20
2017-06-10T14:41:28.617Z,18.20
2017-06-10T14:43:56.161Z,19.30
2017-06-10T14:46:24.467Z,18.30
2017-06-10T14:48:52.033Z,18.80
2017-06-10T14:51:19.559Z,19.50
2017-06-10T14:53:47.881Z,19.00
2017-06-10T14:56:15.415Z,19.00
2017-06-10T14:58:42.955Z,18.00
2017-06-10T15:01:10.507Z,18.30
2017-06-10T15:03:38.804Z,18.80
2017-06-10T15:06:06.353Z,18.80
2017-06-10T15:08:33.909Z,19.00
2017-06-10T15:11:01.487Z,18.60
2017-06-10T15:13:29.027Z,19.70
2017-06-10T15:15:56.567Z,18.40
2017-06-10T15:18:24.122Z,18.10
2017-06-10T15:20:51.670Z,19.30
2017-06-10T15:23:19.227Z,19.40
2017-06-10T15:25:46.753Z,20.60
2017-06-10T15:28:14.317Z,20.50
2017-06-10T15:30:41.881Z,21.10
2017-06-10T15:33:09.417Z,20.60
2017-06-10T15:35:37.003Z,20.50
2017-06-10T15:38:04.563Z,20.90
2017-06-10T15:40:32.127Z,22.10
2017-06-10T15:42:59.653Z,22.40
2017-06-10T15:45:27.204Z,21.50
2017-06-10T15:47:54.731Z,21.40
2017-06-10T15:50:22.293Z,21.40
2017-06-10T15:52:50.590Z,21.10
2017-06-10T15:55:18.147Z,20.60
2017-06-10T15:57:46.466Z,21.30
2017-06-10T16:00:13.996Z,21.20
2017-06-10T16:02:41.557Z,20.70
2017-06-10T16:05:09.098Z,20.10
2017-06-10T16:07:37.433Z,20.10
2017-06-10T16:10:04.970Z,20.10
2017-06-10T16:12:32.514Z,19.10
2017-06-10T16:15:00.116Z,19.60
2017-06-10T16:17:27.651Z,19.80
2017-06-10T16:19:55.211Z,20.80
2017-06-10T16:22:22.763Z,21.00
2017-06-10T16:24:50.314Z,21.00
2017-06-10T16:27:17.841Z,20.30
2017-06-10T16:29:46.175Z,19.70
2017-06-10T16:32:13.708Z,19.70
2017-06-10T16:34:41.234Z,19.40
2017-06-10T16:37:09.564Z,19.60
2017-06-10T16:39:37.101Z,19.60
2017-06-10T16:42:04.669Z,20.20
2017-06-10T16:44:32.199Z,19.70
2017-06-10T16:47:00.522Z,21.00
2017-06-10T16:49:28.054Z,21.10
2017-06-10T16:51:55.619Z,21.10
2017-06-10T16:54:23.143Z,22.50
2017-06-10T16:56:51.461Z,24.10
2017-06-10T16:59:18.985Z,24.10
2017-06-10T17:01:47.298Z,24.00
2017-06-10T17:04:14.858Z,23.80
2017-06-10T17:06:42.383Z,23.70
2017-06-10T17:09:10.694Z,24.70
2017-06-10T17:11:38.222Z,24.70
2017-06-10T17:14:06.605Z,24.20
2017-06-10T17:16:34.137Z,23.50
2017-06-10T17:19:01.713Z,23.50
2017-06-10T17:21:29.263Z,23.50
2017-06-10T17:23:57.561Z,23.80
2017-06-10T17:26:25.114Z,23.80
2017-06-10T17:28:52.655Z,23.10
2017-06-10T17:31:20.988Z,24.00
2017-06-10T17:33:48.526Z,23.90
2017-06-10T17:36:16.114Z,23.20
2017-06-10T17:38:43.652Z,23.20
2017-06-10T17:41:11.242Z,23.60
2017-06-10T17:43:38.781Z,23.40
2017-06-10T17:46:06.356Z,23.90
2017-06-10T17:48:33.915Z,23.60
2017-06-10T17:51:01.450Z,24.10
2017-06-10T17:53:29.008Z,24.20
2017-06-10T17:55:57.358Z,24.90
2017-06-10T17:58:24.913Z,24.90
2017-06-10T18:00:52.450Z,24.80
2017-06-10T18:03:20.034Z,24.40
2017-06-10T18:05:47.561Z,25.30
2017-06-10T18:08:15.112Z,25.00
2017-06-10T18:10:42.648Z,24.90
2017-06-10T18:13:10.218Z,25.20
2017-06-10T18:15:37.747Z,25.00
2017-06-10T18:18:05.277Z,26.00
2017-06-10T18:20:32.863Z,25.90
2017-06-10T18:23:00.389Z,25.90
2017-06-10T18:42:47.471Z,28.40
2017-06-10T18:45:15.430Z,28.00
2017-06-10T18:47:42.987Z,29.10
2017-06-10T18:50:10.831Z,29.10
2017-06-10T18:52:38.373Z,29.30
2017-06-10T18:57:58.493Z,29.80
2017-06-10T19:00:26.280Z,30.60
2017-06-10T19:02:54.614Z,31.30
2017-06-10T19:05:22.413Z,31.20
2017-06-10T19:07:50.693Z,32.20
2017-06-10T19:10:19.065Z,31.70
2017-06-10T19:12:47.352Z,32.90
2017-06-10T19:15:15.750Z,33.30
2017-06-10T19:17:43.454Z,33.30
2017-06-10T19:20:10.996Z,33.90
2017-06-10T19:22:38.509Z,34.90
2017-06-10T19:27:59.932Z,35.10
2017-06-10T19:30:27.489Z,36.50
2017-06-10T19:32:55.047Z,36.80
2017-06-10T19:35:22.627Z,38.40
2017-06-10T19:43:48.759Z,38.00
2017-06-10T19:46:16.302Z,38.70
2017-06-10T19:48:46.406Z,38.90
2017-06-10T19:51:13.972Z,38.90
2017-06-10T19:53:41.514Z,39.60
2017-06-10T19:56:09.073Z,40.00
2017-06-10T19:58:36.715Z,40.70
2017-06-10T20:01:04.334Z,42.20
2017-06-10T20:03:31.961Z,42.20
2017-06-10T20:05:59.560Z,43.20
2017-06-10T20:08:27.120Z,43.20
2017-06-10T20:10:54.682Z,44.40
2017-06-10T20:13:22.257Z,45.30
2017-06-10T20:15:49.791Z,46.30
2017-06-10T20:18:17.354Z,45.90
2017-06-10T20:20:45.716Z,46.90
2017-06-10T20:23:13.251Z,46.70
2017-06-10T20:25:40.798Z,47.10
2017-06-10T20:28:08.341Z,47.40
2017-06-10T20:30:35.955Z,48.40
2017-06-10T20:33:03.511Z,49.10
2017-06-10T20:35:31.072Z,49.80
2017-06-10T20:37:59.114Z,49.50
2017-06-10T20:40:26.681Z,51.30
2017-06-10T20:42:54.207Z,51.40
2017-06-10T20:45:21.732Z,52.10
2017-06-10T20:47:49.279Z,52.70
2017-06-10T20:50:16.850Z,53.20
2017-06-10T20:52:44.462Z,53.30
2017-06-10T20:55:12.002Z,54.00
2017-06-10T20:57:39.564Z,54.90
2017-06-10T21:00:07.090Z,55.10
2017-06-10T21:02:34.638Z,54.80
2017-06-10T21:05:02.983Z,55.50
2017-06-10T21:07:30.543Z,55.50
2017-06-10T21:09:58.088Z,55.70
2017-06-10T21:12:26.396Z,56.00
2017-06-10T21:14:53.968Z,56.00
2017-06-10T21:17:21.496Z,56.30
2017-06-10T21:19:49.042Z,56.30
2017-06-10T21:22:16.591Z,56.90
2017-06-10T21:24:44.922Z,58.10
2017-06-10T21:27:13.104Z,58.00
2017-06-10T21:29:40.653Z,57.90
2017-06-10T21:32:08.247Z,58.20
2017-06-10T21:34:35.848Z,58.40
2017-06-10T21:37:04.177Z,58.30
2017-06-10T21:39:31.733Z,58.80
2017-06-10T21:41:59.281Z,59.10
2017-06-10T21:44:26.806Z,59.20
2017-06-10T21:46:54.383Z,58.90
2017-06-10T21:49:21.927Z,59.10
2017-06-10T21:51:49.532Z,59.00
2017-06-10T21:54:17.049Z,58.90
2017-06-10T21:56:44.639Z,58.60
2017-06-10T21:59:12.202Z,58.00
2017-06-10T22:01:41.250Z,58.50
2017-06-10T22:04:08.794Z,58.10
2017-06-10T22:06:37.207Z,57.00
2017-06-10T22:09:04.754Z,57.00
2017-06-10T22:11:32.275Z,57.40
2017-06-10T22:13:59.869Z,57.30
2017-06-10T22:16:27.416Z,57.30
2017-06-10T22:18:55.067Z,57.10
2017-06-10T22:21:23.366Z,58.20
2017-06-10T22:23:51.077Z,58.00
2017-06-10T22:26:18.634Z,58.90
2017-06-10T22:28:46.175Z,59.30
2017-06-10T22:31:13.714Z,59.80
2017-06-10T22:33:41.279Z,61.10
2017-06-10T22:36:08.826Z,61.20
2017-06-10T22:38:36.382Z,62.30
2017-06-10T22:41:03.927Z,63.00
2017-06-10T22:43:31.451Z,63.40
2017-06-10T22:45:59.021Z,64.00
2017-06-10T22:48:26.622Z,64.10
2017-06-10T22:50:54.141Z,64.70
2017-06-10T22:53:21.709Z,65.40
2017-06-10T22:55:49.241Z,65.90
2017-06-10T22:58:16.850Z,66.50
2017-06-10T23:00:44.413Z,66.50
2017-06-10T23:03:11.999Z,66.60
2017-06-10T23:05:39.523Z,67.00
2017-06-10T23:08:07.122Z,66.80
2017-06-10T23:10:34.633Z,66.90
2017-06-10T23:13:02.942Z,68.70
2017-06-10T23:15:30.482Z,68.60
2017-06-10T23:17:58.006Z,68.20
2017-06-10T23:20:25.552Z,68.90
2017-06-10T23:22:53.107Z,68.80
2017-06-10T23:25:20.662Z,69.50
2017-06-10T23:27:48.199Z,69.50
2017-06-10T23:30:16.473Z,69.50
2017-06-10T23:32:44.006Z,69.50
2017-06-10T23:35:12.290Z,71.00
2017-06-10T23:37:39.839Z,71.00
2017-06-10T23:40:07.392Z,70.50
2017-06-10T23:42:35.728Z,70.90
2017-06-10T23:45:03.255Z,70.80
2017-06-10T23:47:30.810Z,71.40
2017-06-10T23:49:58.351Z,71.90
2017-06-10T23:52:26.642Z,72.10
2017-06-10T23:54:54.175Z,72.00
2017-06-10T23:57:21.698Z,72.70
2017-06-10T23:59:49.241Z,72.90
